sensor_id;sensor_type;location;lat;lon;timestamp;pressure;altitude;pressure_sealevel;temperature;humidity
4024;BME280;2026;51.002;13.668;2023-07-31T15:56:34;98302.91;;;23.16;49.16
4024;BME280;2026;51.002;13.668;2023-07-31T16:01:37;98313.94;;;22.98;49.52
4024;BME280;2026;51.002;13.668;2023-07-31T16:06:40;98297.22;;;22.99;49.43
4024;BME280;2026;51.002;13.668;2023-07-31T16:11:45;98291.94;;;22.86;49.06
4024;BME280;2026;51.002;13.668;2023-07-31T16:16:48;98289.59;;;23.01;50.04
4024;BME280;2026;51.002;13.668;2023-07-31T16:21:54;98297.28;;;22.81;48.60
4024;BME280;2026;51.002;13.668;2023-07-31T16:26:58;98295.16;;;22.65;48.97
4024;BME280;2026;51.002;13.668;2023-07-31T16:32:01;98307.25;;;22.75;48.70
4024;BME280;2026;51.002;13.668;2023-07-31T16:37:04;98307.22;;;22.64;49.69
4024;BME280;2026;51.002;13.668;2023-07-31T16:42:09;98301.72;;;22.64;49.49
4024;BME280;2026;51.002;13.668;2023-07-31T16:47:12;98304.84;;;22.49;49.44
4024;BME280;2026;51.002;13.668;2023-07-31T16:52:15;98292.91;;;22.43;49.31
4024;BME280;2026;51.002;13.668;2023-07-31T16:57:19;98298.75;;;22.47;49.69
4024;BME280;2026;51.002;13.668;2023-07-31T17:02:23;98295.91;;;22.53;49.77
4024;BME280;2026;51.002;13.668;2023-07-31T17:07:27;98289.16;;;22.38;50.49
4024;BME280;2026;51.002;13.668;2023-07-31T17:12:31;98282.91;;;22.49;49.76
4024;BME280;2026;51.002;13.668;2023-07-31T17:17:34;98287.25;;;22.38;49.75
4024;BME280;2026;51.002;13.668;2023-07-31T17:22:37;98290.47;;;22.17;50.98
4024;BME280;2026;51.002;13.668;2023-07-31T17:27:51;98272.63;;;22.26;50.87
4024;BME280;2026;51.002;13.668;2023-07-31T17:32:55;98271.25;;;22.35;51.24
4024;BME280;2026;51.002;13.668;2023-07-31T17:37:58;98261.03;;;22.24;51.28
4024;BME280;2026;51.002;13.668;2023-07-31T17:43:02;98251.59;;;22.02;51.00
4024;BME280;2026;51.002;13.668;2023-07-31T17:48:05;98251.31;;;22.10;51.71
4024;BME280;2026;51.002;13.668;2023-07-31T17:53:10;98241.41;;;22.09;52.09
4024;BME280;2026;51.002;13.668;2023-07-31T17:58:14;98240.19;;;22.05;52.68
4024;BME280;2026;51.002;13.668;2023-07-31T18:03:18;98240.44;;;21.96;53.12
4024;BME280;2026;51.002;13.668;2023-07-31T18:08:23;98244.56;;;21.87;53.45
4024;BME280;2026;51.002;13.668;2023-07-31T18:13:27;98251.94;;;21.87;53.30
4024;BME280;2026;51.002;13.668;2023-07-31T18:18:30;98243.16;;;21.60;54.38
4024;BME280;2026;51.002;13.668;2023-07-31T18:23:33;98232.06;;;21.73;54.28
4024;BME280;2026;51.002;13.668;2023-07-31T18:28:37;98236.41;;;21.81;54.29
4024;BME280;2026;51.002;13.668;2023-07-31T18:33:40;98228.88;;;21.76;55.74
4024;BME280;2026;51.002;13.668;2023-07-31T18:38:43;98226.66;;;21.67;56.13
4024;BME280;2026;51.002;13.668;2023-07-31T18:43:48;98230.06;;;21.44;55.82
4024;BME280;2026;51.002;13.668;2023-07-31T18:48:51;98232.34;;;21.65;56.85
4024;BME280;2026;51.002;13.668;2023-07-31T18:53:54;98233.63;;;21.44;57.06
4024;BME280;2026;51.002;13.668;2023-07-31T18:58:58;98226.19;;;21.26;57.60
4024;BME280;2026;51.002;13.668;2023-07-31T19:04:02;98220.88;;;21.31;57.33
4024;BME280;2026;51.002;13.668;2023-07-31T19:09:06;98214.19;;;21.27;58.15
4024;BME280;2026;51.002;13.668;2023-07-31T19:14:10;98208.69;;;21.27;58.03
4024;BME280;2026;51.002;13.668;2023-07-31T19:19:14;98202.25;;;21.15;58.24
4024;BME280;2026;51.002;13.668;2023-07-31T19:24:17;98201.81;;;21.18;58.47
4024;BME280;2026;51.002;13.668;2023-07-31T19:29:23;98204.81;;;21.10;58.45
4024;BME280;2026;51.002;13.668;2023-07-31T19:34:26;98194.66;;;21.17;57.87
4024;BME280;2026;51.002;13.668;2023-07-31T19:39:29;98185.22;;;21.13;58.24
4024;BME280;2026;51.002;13.668;2023-07-31T19:44:34;98192.69;;;20.99;58.80
4024;BME280;2026;51.002;13.668;2023-07-31T19:49:37;98179.78;;;21.07;57.93
4024;BME280;2026;51.002;13.668;2023-07-31T19:54:40;98174.19;;;20.95;58.41
4024;BME280;2026;51.002;13.668;2023-07-31T19:59:44;98161.41;;;20.89;58.56
4024;BME280;2026;51.002;13.668;2023-07-31T20:04:47;98167.56;;;20.84;59.17
4024;BME280;2026;51.002;13.668;2023-07-31T20:09:50;98151.47;;;20.94;58.44
4024;BME280;2026;51.002;13.668;2023-07-31T20:15:01;98143.16;;;20.83;58.90
4024;BME280;2026;51.002;13.668;2023-07-31T20:20:05;98138.59;;;20.70;59.28
4024;BME280;2026;51.002;13.668;2023-07-31T20:25:08;98122.56;;;20.73;58.81
4024;BME280;2026;51.002;13.668;2023-07-31T20:30:13;98126.81;;;20.69;59.19
4024;BME280;2026;51.002;13.668;2023-07-31T20:35:16;98113.81;;;20.65;58.89
4024;BME280;2026;51.002;13.668;2023-07-31T20:40:19;98102.84;;;20.65;58.88
4024;BME280;2026;51.002;13.668;2023-07-31T20:45:25;98101.34;;;20.69;58.18
4024;BME280;2026;51.002;13.668;2023-07-31T20:50:28;98102.56;;;20.73;57.81
4024;BME280;2026;51.002;13.668;2023-07-31T20:55:33;98093.97;;;20.69;57.83
4024;BME280;2026;51.002;13.668;2023-07-31T21:00:37;98079.84;;;20.72;58.31
4024;BME280;2026;51.002;13.668;2023-07-31T21:05:48;98064.31;;;20.66;57.33
4024;BME280;2026;51.002;13.668;2023-07-31T21:10:51;98060.66;;;20.54;58.53
4024;BME280;2026;51.002;13.668;2023-07-31T21:15:58;98060.81;;;20.59;58.38
4024;BME280;2026;51.002;13.668;2023-07-31T21:21:01;98047.91;;;20.66;58.21
4024;BME280;2026;51.002;13.668;2023-07-31T21:26:04;98047.38;;;20.58;58.50
4024;BME280;2026;51.002;13.668;2023-07-31T21:31:12;98035.13;;;20.60;58.59
4024;BME280;2026;51.002;13.668;2023-07-31T21:36:16;98040.00;;;20.58;58.54
4024;BME280;2026;51.002;13.668;2023-07-31T21:41:19;98030.72;;;20.59;58.53
4024;BME280;2026;51.002;13.668;2023-07-31T21:46:23;98022.00;;;20.44;59.02
4024;BME280;2026;51.002;13.668;2023-07-31T21:51:26;98017.59;;;20.43;58.83
4024;BME280;2026;51.002;13.668;2023-07-31T21:56:29;98024.13;;;20.42;58.87
4024;BME280;2026;51.002;13.668;2023-07-31T22:01:34;98019.44;;;20.49;58.92
4024;BME280;2026;51.002;13.668;2023-07-31T22:06:37;98015.94;;;20.35;59.71
4024;BME280;2026;51.002;13.668;2023-07-31T22:11:40;98007.75;;;20.35;59.36
4024;BME280;2026;51.002;13.668;2023-07-31T22:16:44;98001.63;;;20.40;59.36
4024;BME280;2026;51.002;13.668;2023-07-31T22:21:48;98003.50;;;20.39;59.58
4024;BME280;2026;51.002;13.668;2023-07-31T22:26:51;97997.88;;;20.34;61.09
4024;BME280;2026;51.002;13.668;2023-07-31T22:31:55;98001.31;;;20.23;61.17
4024;BME280;2026;51.002;13.668;2023-07-31T22:36:58;97999.84;;;20.27;61.59
4024;BME280;2026;51.002;13.668;2023-07-31T22:42:01;97998.53;;;20.05;62.50
4024;BME280;2026;51.002;13.668;2023-07-31T22:47:05;97988.88;;;20.02;64.78
4024;BME280;2026;51.002;13.668;2023-07-31T22:52:08;97983.09;;;19.86;66.61
4024;BME280;2026;51.002;13.668;2023-07-31T22:57:12;97970.88;;;19.57;67.91
4024;BME280;2026;51.002;13.668;2023-07-31T23:02:16;97967.78;;;19.46;69.03
4024;BME280;2026;51.002;13.668;2023-07-31T23:07:19;97974.13;;;19.40;69.95
4024;BME280;2026;51.002;13.668;2023-07-31T23:12:22;97944.53;;;19.31;70.43
4024;BME280;2026;51.002;13.668;2023-07-31T23:17:26;97953.16;;;19.28;71.90
4024;BME280;2026;51.002;13.668;2023-07-31T23:22:29;97942.50;;;19.19;72.54
4024;BME280;2026;51.002;13.668;2023-07-31T23:27:33;97936.28;;;18.99;73.94
4024;BME280;2026;51.002;13.668;2023-07-31T23:32:37;97921.03;;;18.85;75.48
4024;BME280;2026;51.002;13.668;2023-07-31T23:37:40;97916.66;;;18.71;75.99
4024;BME280;2026;51.002;13.668;2023-07-31T23:42:43;97896.50;;;18.78;75.57
4024;BME280;2026;51.002;13.668;2023-07-31T23:47:48;97897.47;;;18.97;75.37
4024;BME280;2026;51.002;13.668;2023-07-31T23:52:51;97888.78;;;18.69;77.24
4024;BME280;2026;51.002;13.668;2023-07-31T23:57:54;97883.72;;;18.72;77.08
